Flight Track Log - Related Links

Times and Time Zones

All times are in EDT time to prevent confusion due to time zone crossing. See the N697BJ flight status page for this flight to view local times or setup timezone preferences in your user account.

Time Position Orientation Groundspeed Altitude Reporting Facility
EDT Latitude Longitude Course Direction KTS MPH feet Rate Location/Type
Sun 11:53:29 PM 37.4333 -121.9833 38° Northeast 233 268 3,000  Level Northern Cal TRACON
Sun 11:54:23 PM 37.4833 -121.9333 38° Northeast 253 291 4,900 1,000 Climbing Northern Cal TRACON
Sun 11:55:29 PM 37.4333 -121.8833 142° Southeast 290 334 5,000 450 Climbing Northern Cal TRACON
Sun 11:56:23 PM 37.3667 -121.8333 149° Southeast 267 307 5,800 960 Climbing Northern Cal TRACON
Sun 11:57:09 PM 37.3258 -121.7908 140° Southeast 274 315 6,600 1,415 Climbing Oakland Center
Sun 11:58:09 PM 37.2583 -121.7722 168° South 272 313 8,300 1,785 Climbing Oakland Center
Sun 11:59:10 PM 37.2442 -121.8519 257° West 270 311 10,200 1,869 Climbing Oakland Center
Mon 12:00:11 AM 37.3019 -121.9011 326° Northwest 256 295 12,100 1,230 Climbing Oakland Center
Mon 12:01:12 AM 37.3742 -121.9439 335° Northwest 286 329 12,700 984 Climbing Oakland Center
Mon 12:02:13 AM 37.4533 -121.9953 333° Northwest 316 364 14,100 1,475 Climbing Oakland Center
Mon 12:03:14 AM 37.5486 -121.9767 North 342 394 15,700 1,736 Climbing Oakland Center
Mon 12:04:14 AM 37.6697 -121.9753 North 364 419 17,600 1,785 Climbing Oakland Center
Mon 12:05:15 AM 37.7706 -121.9878 354° North 367 422 19,300 1,574 Climbing Oakland Center
Mon 12:06:16 AM 37.8681 -121.9553 15° North 379 436 20,800 1,230 Climbing Oakland Center
Mon 12:07:17 AM 37.9214 -121.8403 60° Northeast 399 459 21,800 984 Climbing Oakland Center
Mon 12:08:18 AM 37.9383 -121.6961 81° East 413 475 22,800 984 Climbing Oakland Center
Mon 12:09:19 AM 37.9567 -121.5511 81° East 418 481 23,800 1,033 Climbing Oakland Center
Mon 12:10:20 AM 37.9856 -121.4053 76° East 419 482 24,900 893 Climbing Oakland Center
Mon 12:11:20 AM 38.0225 -121.2642 72° East 424 488 25,600 744 Climbing Oakland Center
Mon 12:12:21 AM 38.0494 -121.1175 77° East 431 496 26,400 836 Climbing Oakland Center
Mon 12:13:22 AM 38.0728 -120.9706 79° East 429 494 27,300 689 Climbing Oakland Center
Mon 12:14:23 AM 38.1003 -120.8219 77° East 432 497 27,800 787 Climbing Oakland Center
Mon 12:15:24 AM 38.1286 -120.6719 76° East 438 504 28,900 934 Climbing Oakland Center
Mon 12:16:25 AM 38.1519 -120.5219 79° East 437 503 29,700 738 Climbing Oakland Center
Mon 12:17:26 AM 38.1881 -120.3417 76° East 438 504 30,400 694 Climbing Oakland Center
Mon 12:18:26 AM 38.2114 -120.1908 79° East 439 505 31,100 744 Climbing Oakland Center
Mon 12:19:27 AM 38.2392 -120.0394 77° East 439 505 31,900 590 Climbing Oakland Center
Mon 12:20:28 AM 38.2636 -119.8875 78° East 440 506 32,300 689 Climbing Oakland Center
Mon 12:21:29 AM 38.2764 -119.7344 84° East 438 504 33,300 689 Climbing Oakland Center
Mon 12:22:30 AM 38.2997 -119.5847 79° East 433 498 33,700 492 Climbing Oakland Center
Mon 12:23:31 AM 38.3142 -119.4214 84° East 439 505 34,300 443 Climbing Oakland Center
Mon 12:24:32 AM 38.3317 -119.2706 82° East 435 501 34,600 298 Climbing Oakland Center
Mon 12:25:32 AM 38.3497 -119.1181 81° East 437 503 34,900 198 Climbing Oakland Center
Mon 12:26:33 AM 38.3664 -118.9611 82° East 445 512 35,000 49 Climbing Oakland Center
Mon 12:27:34 AM 38.3867 -118.8036 81° East 451 519 35,000  Level Oakland Center
Mon 12:28:35 AM 38.4047 -118.6397 82° East 466 536 35,000  Level Oakland Center
Mon 12:29:36 AM 38.4261 -118.4769 80° East 467 537 35,000  Level Oakland Center
Mon 12:30:37 AM 38.4447 -118.3119 82° East 472 543 35,000  Level Oakland Center
Mon 12:31:38 AM 38.4669 -118.1478 80° East 473 544 35,000  Level Oakland Center
Mon 12:32:39 AM 38.4850 -117.9733 82° East 478 550 35,000  Level Oakland Center
Mon 12:33:40 AM 38.5042 -117.8058 82° East 476 548 35,000  Level Oakland Center
Mon 12:34:40 AM 38.5103 -117.6344 87° East 481 554 35,000  Level Oakland Center
Mon 12:35:23 AM 38.5181 -117.4975 86° East 480 552 35,000  Level Salt Lake Center
Mon 12:35:41 AM 38.5200 -117.4639 86° East 479 551 35,000  Level Oakland Center
Mon 12:36:24 AM 38.5292 -117.3269 85° East 478 550 35,000  Level Salt Lake Center
Mon 12:37:25 AM 38.5472 -117.1583 82° East 476 548 35,000  Level Salt Lake Center
Mon 12:37:43 AM 38.5511 -117.1247 82° East 476 548 35,000  Level Oakland Center
Mon 12:38:44 AM 38.5664 -116.9556 83° East 476 548 35,000  Level Oakland Center
Mon 12:39:45 AM 38.5850 -116.7864 82° East 478 550 35,000  Level Oakland Center
Mon 12:40:46 AM 38.6056 -116.5819 83° East 482 555 35,000  Level Oakland Center
Mon 12:41:29 AM 38.6161 -116.4803 82° East 480 552 35,000  Level Salt Lake Center
Mon 12:42:30 AM 38.6314 -116.3086 83° East 484 557 35,000  Level Salt Lake Center
Mon 12:43:31 AM 38.6497 -116.1392 82° East 481 554 35,000  Level Salt Lake Center
Mon 12:44:32 AM 38.6644 -115.9689 84° East 481 554 35,000  Level Salt Lake Center
Mon 12:45:34 AM 38.6817 -115.7978 83° East 484 557 35,000  Level Salt Lake Center
Mon 12:46:35 AM 38.6997 -115.6278 82° East 482 555 35,000  Level Salt Lake Center
Mon 12:47:36 AM 38.7111 -115.4217 86° East 485 558 35,000  Level Salt Lake Center
Mon 12:48:37 AM 38.7208 -115.2789 85° East 481 554 35,000  Level Salt Lake Center
Mon 12:49:38 AM 38.7306 -115.1103 86° East 477 549 35,000  Level Salt Lake Center
Mon 12:50:39 AM 38.7436 -114.9092 85° East 474 545 35,000  Level Salt Lake Center
Mon 12:51:40 AM 38.7542 -114.7433 85° East 471 542 35,000  Level Salt Lake Center
Mon 12:52:41 AM 38.7664 -114.5767 85° East 470 541 35,000 49 Level Salt Lake Center
Mon 12:53:42 AM 38.7744 -114.4069 86° East 475 547 35,100 49 Climbing Salt Lake Center
Mon 12:54:43 AM 38.7883 -114.2356 84° East 480 552 35,100 -49 Level Salt Lake Center
Mon 12:55:44 AM 38.7964 -114.0669 86° East 475 547 35,000  Descending Salt Lake Center
Mon 12:56:45 AM 38.8003 -113.8922 88° East 487 560 35,100  Climbing Salt Lake Center
Mon 12:57:46 AM 38.8089 -113.7181 86° East 490 564 35,000 -49 Descending Salt Lake Center
Mon 12:58:47 AM 38.8183 -113.5436 86° East 491 565 35,000  Level Salt Lake Center
Mon 12:59:48 AM 38.8389 -113.3706 81° East 491 565 35,000  Level Salt Lake Center
Mon 01:00:48 AM 38.8569 -113.1967 82° East 490 564 35,000  Level Salt Lake Center
Mon 01:01:49 AM 38.8758 -113.0214 82° East 493 567 35,000  Level Salt Lake Center
Mon 01:02:50 AM 38.8922 -112.8442 83° East 498 573 35,000  Level Salt Lake Center
Mon 01:03:51 AM 38.9114 -112.6669 82° East 501 577 35,000  Level Salt Lake Center
Mon 01:04:52 AM 38.9292 -112.4533 84° East 502 578 35,000  Level Salt Lake Center
Mon 01:05:53 AM 38.9386 -112.2717 86° East 508 585 35,000  Level Salt Lake Center
Mon 01:06:54 AM 38.9486 -112.0892 86° East 511 588 35,000  Level Salt Lake Center
Mon 01:07:55 AM 38.9536 -111.9078 88° East 510 587 35,000  Level Salt Lake Center
Mon 01:08:56 AM 38.9597 -111.7250 87° East 511 588 35,000  Level Salt Lake Center
Mon 01:09:57 AM 38.9642 -111.5403 88° East 515 593 35,000  Level Salt Lake Center
Mon 01:10:57 AM 38.9692 -111.3581 88° East 513 590 35,000  Level Salt Lake Center
Mon 01:11:58 AM 38.9769 -111.1761 87° East 510 587 35,000  Level Salt Lake Center
Mon 01:12:59 AM 38.9839 -110.9747 87° East 512 589 35,000  Level Salt Lake Center
Mon 01:14:00 AM 38.9906 -110.7994 87° East 514 592 35,000  Level Salt Lake Center
Mon 01:15:01 AM 38.9961 -110.6228 88° East 518 596 35,000  Level Salt Lake Center
Mon 01:16:02 AM 39.0061 -110.4167 86° East 518 596 35,000  Level Salt Lake Center
Mon 01:17:02 AM 39.0136 -110.2394 87° East 521 600 35,000  Level Salt Lake Center
Mon 01:18:03 AM 39.0217 -110.0619 87° East 522 601 35,000  Level Salt Lake Center
Mon 01:19:04 AM 39.0289 -109.8542 87° East 522 601 35,000  Level Salt Lake Center
Mon 01:20:05 AM 39.0361 -109.6767 87° East 521 600 35,000  Level Salt Lake Center
Mon 01:21:06 AM 39.0439 -109.4981 87° East 524 603 35,000  Level Salt Lake Center
Mon 01:22:06 AM 39.0528 -109.2906 87° East 525 604 35,000  Level Salt Lake Center
Mon 01:23:07 AM 39.0606 -109.1114 87° East 526 605 35,000  Level Salt Lake Center
Mon 01:24:08 AM 39.0686 -108.9319 87° East 528 608 35,000  Level Salt Lake Center
Mon 01:25:08 AM 39.0775 -108.7206 87° East 532 612 35,000  Level Salt Lake Center
Mon 01:26:09 AM 39.0817 -108.5400 88° East 533 613 35,000  Level Salt Lake Center
Mon 01:27:18 AM 39.0900 -108.3256 87° East 534 615 35,000  Level Denver Center
Mon 01:28:19 AM 39.0875 -108.1117 91° East 536 617 35,000  Level Denver Center
Mon 01:29:19 AM 39.0856 -107.9258 91° East 542 624 35,000  Level Denver Center
Mon 01:30:20 AM 39.0853 -107.7419 90° East 541 623 35,000  Level Denver Center
Mon 01:31:20 AM 39.0839 -107.5272 90° East 539 620 35,000  Level Denver Center
Mon 01:32:21 AM 39.0819 -107.3442 91° East 537 618 35,000 50 Level Denver Center
Mon 01:33:21 AM 39.0822 -107.1628 90° East 533 613 35,100 50 Climbing Denver Center
Mon 01:34:21 AM 39.0831 -106.9500 90° East 533 613 35,100 -50 Level Denver Center
Mon 01:35:22 AM 39.0831 -106.7686 90° East 531 611 35,000 -50 Descending Denver Center
Mon 01:36:22 AM 39.0817 -106.5878 91° East 530 610 35,000  Level Denver Center
Mon 01:37:23 AM 39.0819 -106.3750 90° East 532 612 35,000  Level Denver Center
Mon 01:38:23 AM 39.0819 -106.1919 90° East 535 616 35,000  Level Denver Center
Mon 01:39:23 AM 39.0836 -106.0000 89° East 533 613 35,000  Level Denver Center
Mon 01:40:23 AM 39.0847 -105.8083 90° East 534 615 35,000  Level Denver Center
Mon 01:41:24 AM 39.0861 -105.6164 89° East 533 613 35,000  Level Denver Center
Mon 01:42:24 AM 39.0928 -105.4258 87° East 532 612 35,000  Level Denver Center
Mon 01:43:24 AM 39.0994 -105.2347 87° East 533 613 35,000  Level Denver Center
Mon 01:44:25 AM 39.1044 -105.0461 88° East 529 609 35,000  Level Denver Center
Mon 01:45:25 AM 39.1028 -104.8519 91° East 538 619 35,000  Level Denver Center
Mon 01:46:25 AM 39.0994 -104.6597 91° East 536 617 35,000  Level Denver Center
Mon 01:47:26 AM 39.0975 -104.4672 91° East 539 620 35,000  Level Denver Center
Mon 01:48:26 AM 39.0967 -104.2769 90° East 533 613 35,000  Level Denver Center
Mon 01:49:26 AM 39.0950 -104.0847 91° East 535 616 35,000  Level Denver Center
Mon 01:50:27 AM 39.0897 -103.8933 92° East 533 613 35,000  Level Denver Center
Mon 01:51:27 AM 39.0872 -103.7014 91° East 533 613 35,000  Level Denver Center
Mon 01:52:27 AM 39.0828 -103.5075 92° East 537 618 35,000  Level Denver Center
Mon 01:53:28 AM 39.0656 -103.3158 97° East 540 621 35,000  Level Denver Center
Mon 01:54:28 AM 39.0444 -103.1236 98° East 541 623 35,000  Level Denver Center
Mon 01:55:28 AM 39.0272 -102.9333 97° East 534 615 35,000  Level Denver Center
Mon 01:56:29 AM 39.0236 -102.7450 91° East 524 603 35,000  Level Denver Center
Mon 01:57:29 AM 39.0236 -102.5514 90° East 525 604 35,000  Level Denver Center
Mon 01:58:29 AM 39.0222 -102.3725 91° East 524 603 35,000  Level Denver Center
Mon 01:59:30 AM 39.0222 -102.1931 90° East 525 604 35,000  Level Denver Center
Mon 02:00:30 AM 39.0231 -102.0136 90° East 525 604 35,000  Level Denver Center
Mon 02:01:30 AM 39.0258 -101.8067 89° East 519 597 35,000  Level Denver Center
Mon 02:02:31 AM 39.0267 -101.6300 90° East 516 594 35,000  Level Denver Center
Mon 02:03:31 AM 39.0286 -101.4519 89° East 519 597 35,000  Level Denver Center
Mon 02:04:31 AM 39.0297 -101.2761 89° East 514 592 35,000  Level Denver Center
Mon 02:05:32 AM 38.9950 -101.0708 102° East 525 604 35,000  Level Denver Center
Mon 02:06:32 AM 38.9511 -100.9014 108° East 523 602 35,000  Level Denver Center
Mon 02:07:32 AM 38.9047 -100.7361 110° East 518 596 35,000 -248 Level Denver Center
Mon 02:08:33 AM 38.8483 -100.5433 111° Southeast 516 594 34,500 -744 Descending Denver Center
Mon 02:09:33 AM 38.8000 -100.3761 110° East 520 598 33,500 -1,150 Descending Denver Center
Mon 02:10:33 AM 38.7703 -100.2011 102° East 524 603 32,200 -1,200 Descending Denver Center
Mon 02:11:33 AM 38.7672 -100.0214 91° East 529 609 31,100 -1,388 Descending Denver Center
Mon 02:12:34 AM 38.7814 -99.8231 85° East 505 581 29,400 -1,884 Descending Denver Center
Mon 02:13:34 AM 38.8019 -99.6581 81° East 494 568 27,300 -2,000 Descending Denver Center
Mon 02:14:34 AM 38.8133 -99.4917 85° East 490 564 25,400 -1,682 Descending Denver Center
Mon 02:15:21 AM 38.8186 -99.3547 87° East 484 557 24,300 -1,402 Descending Kansas City Center
Mon 02:16:21 AM 38.8147 -99.1853 92° East 477 549 22,900 -1,500 Descending Kansas City Center
Mon 02:17:21 AM 38.8006 -99.0200 96° East 469 540 21,300 -1,686 Descending Kansas City Center
Mon 02:18:22 AM 38.7867 -98.8531 96° East 470 541 19,500 -1,765 Descending Kansas City Center
Mon 02:19:20 AM 38.7903 -98.6950 88° East 446 513 17,800 -2,085 Descending Kansas City Center
Mon 02:20:20 AM 38.7983 -98.5472 86° East 420 483 15,400 -2,800 Descending Kansas City Center
Mon 02:21:20 AM 38.8056 -98.4058 86° East 400 460 12,200 -2,537 Descending Kansas City Center
Mon 02:22:23 AM 38.8119 -98.2694 87° East 384 442 10,200 -1,250 Descending Kansas City Center
Mon 02:23:20 AM 38.8228 -98.1561 83° East 319 367 9,700 -966 Descending Kansas City Center
Mon 02:24:21 AM 38.8314 -98.0597 83° East 277 319 8,300 -1,600 Descending Kansas City Center
Mon 02:25:20 AM 38.8494 -97.9753 75° East 250 288 6,500 -1,537 Descending Kansas City Center
Mon 02:26:22 AM 38.8708 -97.8942 71° East 240 276 5,200 -1,258 Descending Kansas City Center

Login

Don't have an account? Register now (free) for customized features, flight alerts, and more!